sensor_id;sensor_type;location;lat;lon;timestamp;pressure;altitude;pressure_sealevel;temperature;humidity
11621;BME280;5866;49.094;11.900;2023-04-04T00:02:10;97025.56;;;1.56;69.78
11621;BME280;5866;49.094;11.900;2023-04-04T00:04:38;97034.00;;;1.45;70.03
11621;BME280;5866;49.094;11.900;2023-04-04T00:07:07;97028.44;;;1.51;70.91
11621;BME280;5866;49.094;11.900;2023-04-04T00:09:34;97014.91;;;1.14;70.88
11621;BME280;5866;49.094;11.900;2023-04-04T00:12:02;97025.09;;;1.03;71.34
11621;BME280;5866;49.094;11.900;2023-04-04T00:14:30;97020.66;;;0.89;70.99
11621;BME280;5866;49.094;11.900;2023-04-04T00:16:58;97001.38;;;0.92;70.88
11621;BME280;5866;49.094;11.900;2023-04-04T00:19:25;97008.25;;;0.93;71.21
11621;BME280;5866;49.094;11.900;2023-04-04T00:21:53;97010.78;;;0.78;71.72
11621;BME280;5866;49.094;11.900;2023-04-04T00:24:22;97014.25;;;0.95;70.46
11621;BME280;5866;49.094;11.900;2023-04-04T00:26:50;97010.44;;;0.85;68.63
11621;BME280;5866;49.094;11.900;2023-04-04T00:29:17;97009.63;;;0.68;69.31
11621;BME280;5866;49.094;11.900;2023-04-04T00:31:45;97005.56;;;0.78;69.30
11621;BME280;5866;49.094;11.900;2023-04-04T00:34:12;96998.75;;;0.92;69.20
11621;BME280;5866;49.094;11.900;2023-04-04T00:36:40;96999.59;;;0.76;68.74
11621;BME280;5866;49.094;11.900;2023-04-04T00:39:08;96991.06;;;0.57;68.87
11621;BME280;5866;49.094;11.900;2023-04-04T00:41:37;96988.72;;;0.68;68.67
11621;BME280;5866;49.094;11.900;2023-04-04T00:44:05;96988.69;;;0.53;68.72
11621;BME280;5866;49.094;11.900;2023-04-04T00:46:32;96988.69;;;0.53;69.45
11621;BME280;5866;49.094;11.900;2023-04-04T00:49:00;96989.13;;;0.45;68.56
11621;BME280;5866;49.094;11.900;2023-04-04T00:51:28;96986.69;;;0.58;67.74
11621;BME280;5866;49.094;11.900;2023-04-04T00:53:56;96991.56;;;0.48;68.35
11621;BME280;5866;49.094;11.900;2023-04-04T00:56:25;96989.19;;;0.28;66.79
11621;BME280;5866;49.094;11.900;2023-04-04T00:58:55;96981.03;;;0.34;68.52
11621;BME280;5866;49.094;11.900;2023-04-04T01:01:23;96991.75;;;0.76;66.01
11621;BME280;5866;49.094;11.900;2023-04-04T01:03:51;96991.59;;;0.79;65.56
11621;BME280;5866;49.094;11.900;2023-04-04T01:06:19;96987.22;;;0.64;65.83
11621;BME280;5866;49.094;11.900;2023-04-04T01:08:47;96993.91;;;0.37;67.52
11621;BME280;5866;49.094;11.900;2023-04-04T01:11:15;96988.50;;;0.40;67.96
11621;BME280;5866;49.094;11.900;2023-04-04T01:13:43;96983.81;;;0.47;68.01
11621;BME280;5866;49.094;11.900;2023-04-04T01:16:12;96980.78;;;0.39;68.66
11621;BME280;5866;49.094;11.900;2023-04-04T01:18:41;96972.38;;;0.49;68.69
11621;BME280;5866;49.094;11.900;2023-04-04T01:21:11;96973.38;;;0.31;68.84
11621;BME280;5866;49.094;11.900;2023-04-04T01:23:45;96967.13;;;0.34;69.99
11621;BME280;5866;49.094;11.900;2023-04-04T01:26:17;96963.88;;;0.61;67.27
11621;BME280;5866;49.094;11.900;2023-04-04T01:28:47;96958.06;;;0.72;66.03
11621;BME280;5866;49.094;11.900;2023-04-04T01:31:19;96955.88;;;0.96;65.70
11621;BME280;5866;49.094;11.900;2023-04-04T01:33:53;96955.38;;;0.73;65.62
11621;BME280;5866;49.094;11.900;2023-04-04T01:36:25;96956.63;;;0.98;65.05
11621;BME280;5866;49.094;11.900;2023-04-04T01:38:58;96955.72;;;0.52;66.32
11621;BME280;5866;49.094;11.900;2023-04-04T01:41:33;96950.31;;;0.39;67.25
11621;BME280;5866;49.094;11.900;2023-04-04T01:44:01;96951.47;;;0.34;67.91
11621;BME280;5866;49.094;11.900;2023-04-04T01:46:29;96945.09;;;0.70;66.71
11621;BME280;5866;49.094;11.900;2023-04-04T01:48:57;96950.13;;;0.42;68.33
11621;BME280;5866;49.094;11.900;2023-04-04T01:51:25;96946.41;;;0.15;71.58
11621;BME280;5866;49.094;11.900;2023-04-04T01:53:53;96949.50;;;-0.44;76.78
11621;BME280;5866;49.094;11.900;2023-04-04T01:56:20;96947.16;;;-0.48;79.22
11621;BME280;5866;49.094;11.900;2023-04-04T01:58:49;96947.38;;;-0.53;80.50
11621;BME280;5866;49.094;11.900;2023-04-04T02:01:17;96949.75;;;-0.48;80.27
11621;BME280;5866;49.094;11.900;2023-04-04T02:03:45;96945.94;;;-0.75;81.13
11621;BME280;5866;49.094;11.900;2023-04-04T02:06:13;96950.06;;;-0.89;82.83
11621;BME280;5866;49.094;11.900;2023-04-04T02:08:41;96953.41;;;-1.04;83.62
11621;BME280;5866;49.094;11.900;2023-04-04T02:11:08;96948.31;;;-1.24;83.98
11621;BME280;5866;49.094;11.900;2023-04-04T02:13:36;96950.56;;;-1.35;84.09
11621;BME280;5866;49.094;11.900;2023-04-04T02:16:08;96953.94;;;-1.33;82.78
11621;BME280;5866;49.094;11.900;2023-04-04T02:18:35;96951.81;;;-1.25;83.11
11621;BME280;5866;49.094;11.900;2023-04-04T02:21:03;96949.13;;;-1.23;82.59
11621;BME280;5866;49.094;11.900;2023-04-04T02:23:30;96948.31;;;-1.24;82.63
11621;BME280;5866;49.094;11.900;2023-04-04T02:25:58;96952.41;;;-1.37;84.83
11621;BME280;5866;49.094;11.900;2023-04-04T02:28:27;96952.25;;;-1.34;84.78
11621;BME280;5866;49.094;11.900;2023-04-04T02:30:54;96956.47;;;-1.31;85.47
11621;BME280;5866;49.094;11.900;2023-04-04T02:33:23;96947.03;;;-1.34;86.22
11621;BME280;5866;49.094;11.900;2023-04-04T02:35:51;96953.47;;;-1.41;86.98
11621;BME280;5866;49.094;11.900;2023-04-04T02:38:18;96944.44;;;-1.34;87.02
11621;BME280;5866;49.094;11.900;2023-04-04T02:40:46;96948.31;;;-1.24;86.15
11621;BME280;5866;49.094;11.900;2023-04-04T02:43:13;96948.38;;;-1.25;85.69
11621;BME280;5866;49.094;11.900;2023-04-04T02:45:41;96939.88;;;-1.29;86.68
11621;BME280;5866;49.094;11.900;2023-04-04T02:48:08;96951.56;;;-1.37;87.28
11621;BME280;5866;49.094;11.900;2023-04-04T02:50:38;96950.50;;;-1.52;87.90
11621;BME280;5866;49.094;11.900;2023-04-04T02:53:06;96953.97;;;-1.51;88.88
11621;BME280;5866;49.094;11.900;2023-04-04T02:55:34;96953.13;;;-1.52;89.28
11621;BME280;5866;49.094;11.900;2023-04-04T02:58:01;96956.50;;;-1.50;88.59
11621;BME280;5866;49.094;11.900;2023-04-04T03:00:29;96949.16;;;-1.42;88.92
11621;BME280;5866;49.094;11.900;2023-04-04T03:02:56;96948.97;;;-1.37;88.51
11621;BME280;5866;49.094;11.900;2023-04-04T03:05:25;96954.06;;;-1.36;88.30
11621;BME280;5866;49.094;11.900;2023-04-04T03:07:54;96951.81;;;-1.25;87.93
11621;BME280;5866;49.094;11.900;2023-04-04T03:10:22;96943.59;;;-1.16;87.45
11621;BME280;5866;49.094;11.900;2023-04-04T03:12:50;96943.03;;;-1.22;87.60
11621;BME280;5866;49.094;11.900;2023-04-04T03:15:17;96943.97;;;-1.42;88.48
11621;BME280;5866;49.094;11.900;2023-04-04T03:17:45;96948.97;;;-1.37;88.36
11621;BME280;5866;49.094;11.900;2023-04-04T03:20:13;96946.50;;;-1.59;88.85
11621;BME280;5866;49.094;11.900;2023-04-04T03:22:41;96940.59;;;-1.44;89.49
11621;BME280;5866;49.094;11.900;2023-04-04T03:25:10;96947.63;;;-1.46;89.00
11621;BME280;5866;49.094;11.900;2023-04-04T03:27:38;96943.47;;;-1.50;89.48
11621;BME280;5866;49.094;11.900;2023-04-04T03:30:06;96943.41;;;-1.67;89.77
11621;BME280;5866;49.094;11.900;2023-04-04T03:32:35;96942.59;;;-1.32;88.21
11621;BME280;5866;49.094;11.900;2023-04-04T03:35:02;96937.91;;;-1.24;86.98
11621;BME280;5866;49.094;11.900;2023-04-04T03:37:30;96933.50;;;-1.40;87.89
11621;BME280;5866;49.094;11.900;2023-04-04T03:39:58;96946.66;;;-1.43;87.94
11621;BME280;5866;49.094;11.900;2023-04-04T03:42:31;96948.06;;;-1.36;87.84
11621;BME280;5866;49.094;11.900;2023-04-04T03:44:59;96944.25;;;-1.48;88.64
11621;BME280;5866;49.094;11.900;2023-04-04T03:47:28;96938.03;;;-1.27;88.66
11621;BME280;5866;49.094;11.900;2023-04-04T03:49:56;96939.53;;;-1.40;88.32
11621;BME280;5866;49.094;11.900;2023-04-04T03:52:23;96939.22;;;-1.34;87.91
11621;BME280;5866;49.094;11.900;2023-04-04T03:54:51;96941.84;;;-1.34;87.14
11621;BME280;5866;49.094;11.900;2023-04-04T03:57:18;96939.19;;;-1.70;89.56
11621;BME280;5866;49.094;11.900;2023-04-04T03:59:47;96948.28;;;-1.78;92.29
11621;BME280;5866;49.094;11.900;2023-04-04T04:02:15;96940.63;;;-1.81;92.67
11621;BME280;5866;49.094;11.900;2023-04-04T04:04:42;96950.59;;;-1.72;92.92
11621;BME280;5866;49.094;11.900;2023-04-04T04:07:10;96954.03;;;-1.72;91.91
11621;BME280;5866;49.094;11.900;2023-04-04T04:09:37;96947.22;;;-1.74;93.01
11621;BME280;5866;49.094;11.900;2023-04-04T04:12:05;96944.28;;;-1.85;92.83
11621;BME280;5866;49.094;11.900;2023-04-04T04:14:33;96943.56;;;-1.70;92.79
11621;BME280;5866;49.094;11.900;2023-04-04T04:17:02;96945.31;;;-1.89;92.45
11621;BME280;5866;49.094;11.900;2023-04-04T04:19:29;96949.88;;;-1.76;93.19
11621;BME280;5866;49.094;11.900;2023-04-04T04:21:57;96937.44;;;-1.88;94.41
11621;BME280;5866;49.094;11.900;2023-04-04T04:24:24;96952.06;;;-1.85;94.86
11621;BME280;5866;49.094;11.900;2023-04-04T04:26:52;96951.38;;;-1.70;93.46
11621;BME280;5866;49.094;11.900;2023-04-04T04:29:19;96948.69;;;-1.87;94.51
11621;BME280;5866;49.094;11.900;2023-04-04T04:31:47;96956.63;;;-1.90;96.63
11621;BME280;5866;49.094;11.900;2023-04-04T04:34:16;96958.31;;;-2.08;97.94
11621;BME280;5866;49.094;11.900;2023-04-04T04:36:43;96952.53;;;-2.14;99.55
11621;BME280;5866;49.094;11.900;2023-04-04T04:39:11;96947.34;;;-1.96;99.45
11621;BME280;5866;49.094;11.900;2023-04-04T04:41:38;96954.84;;;-2.08;99.86
11621;BME280;5866;49.094;11.900;2023-04-04T04:44:06;96950.81;;;-2.15;100.00
11621;BME280;5866;49.094;11.900;2023-04-04T04:46:34;96953.03;;;-2.06;100.00
11621;BME280;5866;49.094;11.900;2023-04-04T04:49:01;96944.91;;;-1.80;98.02
11621;BME280;5866;49.094;11.900;2023-04-04T04:51:30;96949.47;;;-1.85;96.42
11621;BME280;5866;49.094;11.900;2023-04-04T04:53:58;96951.00;;;-1.81;95.47
11621;BME280;5866;49.094;11.900;2023-04-04T04:56:26;96944.56;;;-1.91;97.63
11621;BME280;5866;49.094;11.900;2023-04-04T04:58:53;96960.00;;;-1.88;98.54
11621;BME280;5866;49.094;11.900;2023-04-04T05:01:21;96954.38;;;-1.42;94.95
11621;BME280;5866;49.094;11.900;2023-04-04T05:03:49;96942.06;;;-1.03;91.10
11621;BME280;5866;49.094;11.900;2023-04-04T05:06:18;96944.78;;;-0.70;87.61
11621;BME280;5866;49.094;11.900;2023-04-04T05:08:48;96943.75;;;-0.33;84.31
11621;BME280;5866;49.094;11.900;2023-04-04T05:11:15;96943.94;;;-0.21;81.87
11621;BME280;5866;49.094;11.900;2023-04-04T05:13:43;96947.72;;;0.39;78.87
11621;BME280;5866;49.094;11.900;2023-04-04T05:16:10;96942.41;;;0.88;74.44
11621;BME280;5866;49.094;11.900;2023-04-04T05:18:38;96947.16;;;1.11;73.34
11621;BME280;5866;49.094;11.900;2023-04-04T05:21:05;96944.47;;;1.42;70.40
11621;BME280;5866;49.094;11.900;2023-04-04T05:23:33;96949.44;;;2.04;67.56
11621;BME280;5866;49.094;11.900;2023-04-04T05:26:02;96940.03;;;2.71;63.68
11621;BME280;5866;49.094;11.900;2023-04-04T05:28:29;96950.09;;;3.17;61.64
11621;BME280;5866;49.094;11.900;2023-04-04T05:30:57;96955.06;;;3.08;59.97
11621;BME280;5866;49.094;11.900;2023-04-04T05:33:24;96950.72;;;3.21;59.39
11621;BME280;5866;49.094;11.900;2023-04-04T05:35:52;96945.25;;;3.51;58.15
11621;BME280;5866;49.094;11.900;2023-04-04T05:38:20;96943.72;;;3.73;56.39
11621;BME280;5866;49.094;11.900;2023-04-04T05:40:47;96951.13;;;3.93;56.57
11621;BME280;5866;49.094;11.900;2023-04-04T05:43:16;96941.66;;;4.03;55.55
11621;BME280;5866;49.094;11.900;2023-04-04T05:45:44;96945.38;;;4.75;54.76
11621;BME280;5866;49.094;11.900;2023-04-04T05:48:11;96951.91;;;4.44;54.07
11621;BME280;5866;49.094;11.900;2023-04-04T05:50:39;96947.84;;;4.28;53.91
11621;BME280;5866;49.094;11.900;2023-04-04T05:53:07;96945.25;;;5.13;53.15
11621;BME280;5866;49.094;11.900;2023-04-04T05:55:34;96945.34;;;5.58;51.41
11621;BME280;5866;49.094;11.900;2023-04-04T05:58:01;96947.22;;;5.80;50.47
11621;BME280;5866;49.094;11.900;2023-04-04T06:00:30;96944.03;;;4.93;52.24
11621;BME280;5866;49.094;11.900;2023-04-04T06:02:58;96945.09;;;4.54;52.84
11621;BME280;5866;49.094;11.900;2023-04-04T06:05:26;96947.63;;;5.39;51.53
11621;BME280;5866;49.094;11.900;2023-04-04T06:07:53;96953.28;;;5.70;51.01
11621;BME280;5866;49.094;11.900;2023-04-04T06:10:21;96947.63;;;5.16;51.39
11621;BME280;5866;49.094;11.900;2023-04-04T06:12:48;96958.47;;;5.11;51.55
11621;BME280;5866;49.094;11.900;2023-04-04T06:15:16;96945.94;;;4.91;52.14
11621;BME280;5866;49.094;11.900;2023-04-04T06:17:45;96940.41;;;4.09;53.42
11621;BME280;5866;49.094;11.900;2023-04-04T06:20:12;96947.72;;;4.54;53.42
11621;BME280;5866;49.094;11.900;2023-04-04T06:22:40;96945.88;;;4.67;53.28
11621;BME280;5866;49.094;11.900;2023-04-04T06:25:08;96940.72;;;4.78;53.43
11621;BME280;5866;49.094;11.900;2023-04-04T06:27:36;96950.78;;;5.44;51.12
11621;BME280;5866;49.094;11.900;2023-04-04T06:30:05;96944.16;;;5.39;52.06
11621;BME280;5866;49.094;11.900;2023-04-04T06:32:35;96937.69;;;5.32;50.86
11621;BME280;5866;49.094;11.900;2023-04-04T06:35:07;96944.34;;;5.59;50.86
11621;BME280;5866;49.094;11.900;2023-04-04T06:37:35;96948.13;;;6.03;49.94
11621;BME280;5866;49.094;11.900;2023-04-04T06:40:05;96949.22;;;6.22;49.45
11621;BME280;5866;49.094;11.900;2023-04-04T06:42:33;96949.22;;;5.42;51.70
11621;BME280;5866;49.094;11.900;2023-04-04T06:45:00;96956.66;;;6.17;50.34
11621;BME280;5866;49.094;11.900;2023-04-04T06:47:28;96949.75;;;4.87;53.18
11621;BME280;5866;49.094;11.900;2023-04-04T06:49:56;96949.09;;;6.13;50.49
11621;BME280;5866;49.094;11.900;2023-04-04T06:52:25;96948.88;;;6.38;49.21
11621;BME280;5866;49.094;11.900;2023-04-04T06:54:52;96945.69;;;5.07;51.91
11621;BME280;5866;49.094;11.900;2023-04-04T06:57:20;96953.66;;;6.22;49.71
11621;BME280;5866;49.094;11.900;2023-04-04T06:59:47;96946.78;;;8.03;47.38
11621;BME280;5866;49.094;11.900;2023-04-04T07:02:15;96938.50;;;8.89;44.81
11621;BME280;5866;49.094;11.900;2023-04-04T07:04:42;96943.44;;;9.22;43.13
11621;BME280;5866;49.094;11.900;2023-04-04T07:07:10;96949.81;;;8.19;44.93
11621;BME280;5866;49.094;11.900;2023-04-04T07:09:39;96958.81;;;6.23;48.18
11621;BME280;5866;49.094;11.900;2023-04-04T07:12:07;96961.69;;;5.04;51.57
11621;BME280;5866;49.094;11.900;2023-04-04T07:14:35;96964.47;;;4.90;53.22
11621;BME280;5866;49.094;11.900;2023-04-04T07:17:02;96965.72;;;4.84;53.37
11621;BME280;5866;49.094;11.900;2023-04-04T07:19:47;96965.53;;;5.34;52.01
11621;BME280;5866;49.094;11.900;2023-04-04T07:22:14;96967.63;;;5.77;52.58
11621;BME280;5866;49.094;11.900;2023-04-04T07:24:43;96963.03;;;5.91;51.24
11621;BME280;5866;49.094;11.900;2023-04-04T07:27:11;96963.47;;;5.50;51.75
11621;BME280;5866;49.094;11.900;2023-04-04T07:29:40;96967.41;;;4.85;52.26
11621;BME280;5866;49.094;11.900;2023-04-04T07:32:08;96964.00;;;4.47;52.75
11621;BME280;5866;49.094;11.900;2023-04-04T07:34:35;96964.13;;;4.45;54.46
11621;BME280;5866;49.094;11.900;2023-04-04T07:37:03;96962.31;;;4.71;53.53
11621;BME280;5866;49.094;11.900;2023-04-04T07:39:30;96966.53;;;4.97;52.75
11621;BME280;5866;49.094;11.900;2023-04-04T07:41:59;96954.53;;;5.29;52.23
11621;BME280;5866;49.094;11.900;2023-04-04T07:44:27;96955.47;;;5.28;50.74
11621;BME280;5866;49.094;11.900;2023-04-04T07:46:54;96955.94;;;4.37;52.07
11621;BME280;5866;49.094;11.900;2023-04-04T07:49:35;96956.16;;;4.83;53.06
11621;BME280;5866;49.094;11.900;2023-04-04T07:52:03;96950.34;;;5.27;52.91
11621;BME280;5866;49.094;11.900;2023-04-04T07:54:30;96952.03;;;4.92;51.54
11621;BME280;5866;49.094;11.900;2023-04-04T07:56:59;96958.16;;;4.06;52.49
11621;BME280;5866;49.094;11.900;2023-04-04T07:59:26;96955.53;;;4.06;53.98
11621;BME280;5866;49.094;11.900;2023-04-04T08:01:54;96959.34;;;4.63;54.18
11621;BME280;5866;49.094;11.900;2023-04-04T08:04:22;96954.72;;;5.15;53.65
11621;BME280;5866;49.094;11.900;2023-04-04T08:06:49;96965.00;;;5.42;53.00
11621;BME280;5866;49.094;11.900;2023-04-04T08:09:17;96956.31;;;5.52;50.62
11621;BME280;5866;49.094;11.900;2023-04-04T08:11:44;96956.94;;;5.91;49.89
11621;BME280;5866;49.094;11.900;2023-04-04T08:14:13;96958.00;;;6.34;47.10
11621;BME280;5866;49.094;11.900;2023-04-04T08:16:41;96956.66;;;6.28;46.34
11621;BME280;5866;49.094;11.900;2023-04-04T08:19:08;96958.66;;;4.36;51.67
11621;BME280;5866;49.094;11.900;2023-04-04T08:21:36;96963.63;;;3.51;55.07
11621;BME280;5866;49.094;11.900;2023-04-04T08:24:04;96962.81;;;2.97;56.22
11621;BME280;5866;49.094;11.900;2023-04-04T08:26:31;96960.13;;;3.11;56.44
11621;BME280;5866;49.094;11.900;2023-04-04T08:28:59;96967.31;;;2.95;56.61
11621;BME280;5866;49.094;11.900;2023-04-04T08:31:28;96960.66;;;3.43;51.08
11621;BME280;5866;49.094;11.900;2023-04-04T08:33:56;96966.28;;;3.63;49.54
11621;BME280;5866;49.094;11.900;2023-04-04T08:36:23;96953.63;;;4.08;49.24
11621;BME280;5866;49.094;11.900;2023-04-04T08:38:51;96971.63;;;3.62;50.10
11621;BME280;5866;49.094;11.900;2023-04-04T08:41:19;96966.75;;;3.43;48.57
11621;BME280;5866;49.094;11.900;2023-04-04T08:43:49;96960.41;;;3.33;48.80
11621;BME280;5866;49.094;11.900;2023-04-04T08:46:21;96966.16;;;2.99;50.30
11621;BME280;5866;49.094;11.900;2023-04-04T08:48:51;96964.84;;;3.33;50.11
11621;BME280;5866;49.094;11.900;2023-04-04T08:51:21;96960.03;;;4.03;48.58
11621;BME280;5866;49.094;11.900;2023-04-04T08:53:49;96953.00;;;4.29;48.79
11621;BME280;5866;49.094;11.900;2023-04-04T08:56:17;96958.41;;;4.64;48.13
11621;BME280;5866;49.094;11.900;2023-04-04T08:58:44;96958.56;;;4.50;48.56
11621;BME280;5866;49.094;11.900;2023-04-04T09:01:12;96962.81;;;3.75;47.51
11621;BME280;5866;49.094;11.900;2023-04-04T09:03:42;96964.47;;;3.51;49.63
11621;BME280;5866;49.094;11.900;2023-04-04T09:06:12;96960.44;;;3.46;49.58
11621;BME280;5866;49.094;11.900;2023-04-04T09:08:40;96961.69;;;3.40;49.27
11621;BME280;5866;49.094;11.900;2023-04-04T09:11:09;96951.44;;;3.37;49.93
11621;BME280;5866;49.094;11.900;2023-04-04T09:13:38;96958.44;;;2.83;51.30
11621;BME280;5866;49.094;11.900;2023-04-04T09:16:07;96950.19;;;2.89;51.60
11621;BME280;5866;49.094;11.900;2023-04-04T09:18:35;96957.44;;;3.25;50.99
11621;BME280;5866;49.094;11.900;2023-04-04T09:21:07;96956.75;;;3.62;50.97
11621;BME280;5866;49.094;11.900;2023-04-04T09:23:37;96955.41;;;4.20;49.46
11621;BME280;5866;49.094;11.900;2023-04-04T09:26:05;96956.38;;;4.31;48.76
11621;BME280;5866;49.094;11.900;2023-04-04T09:28:34;96943.19;;;4.93;47.67
11621;BME280;5866;49.094;11.900;2023-04-04T09:31:03;96945.59;;;5.67;47.07
11621;BME280;5866;49.094;11.900;2023-04-04T09:33:33;96952.91;;;5.98;45.63
11621;BME280;5866;49.094;11.900;2023-04-04T09:36:03;96949.09;;;5.20;45.33
11621;BME280;5866;49.094;11.900;2023-04-04T09:38:36;96955.91;;;6.04;45.99
11621;BME280;5866;49.094;11.900;2023-04-04T09:41:05;96940.00;;;6.83;44.08
11621;BME280;5866;49.094;11.900;2023-04-04T09:43:35;96936.53;;;7.68;43.09
11621;BME280;5866;49.094;11.900;2023-04-04T09:46:05;96944.97;;;7.31;42.37
11621;BME280;5866;49.094;11.900;2023-04-04T09:48:34;96944.16;;;7.08;42.47
11621;BME280;5866;49.094;11.900;2023-04-04T09:51:03;96943.34;;;6.96;44.52
11621;BME280;5866;49.094;11.900;2023-04-04T09:53:33;96935.72;;;7.57;42.41
11621;BME280;5866;49.094;11.900;2023-04-04T09:56:05;96939.94;;;7.16;42.47
11621;BME280;5866;49.094;11.900;2023-04-04T09:58:32;96936.22;;;7.19;42.47
11621;BME280;5866;49.094;11.900;2023-04-04T10:01:02;96943.47;;;6.84;42.89
11621;BME280;5866;49.094;11.900;2023-04-04T10:03:32;96939.19;;;6.83;44.23
11621;BME280;5866;49.094;11.900;2023-04-04T10:06:00;96950.31;;;5.03;46.88
11621;BME280;5866;49.094;11.900;2023-04-04T10:08:33;96946.72;;;6.43;45.08
11621;BME280;5866;49.094;11.900;2023-04-04T10:11:03;96936.19;;;7.62;41.52
11621;BME280;5866;49.094;11.900;2023-04-04T10:13:38;96935.13;;;8.87;40.37
11621;BME280;5866;49.094;11.900;2023-04-04T10:16:09;96937.63;;;9.28;39.12
11621;BME280;5866;49.094;11.900;2023-04-04T10:18:37;96938.06;;;8.84;40.23
11621;BME280;5866;49.094;11.900;2023-04-04T10:21:06;96932.34;;;7.86;39.72
11621;BME280;5866;49.094;11.900;2023-04-04T10:23:39;96937.94;;;4.93;43.88
11621;BME280;5866;49.094;11.900;2023-04-04T10:26:09;96936.00;;;4.83;46.93
11621;BME280;5866;49.094;11.900;2023-04-04T10:28:40;96940.38;;;5.19;45.12
11621;BME280;5866;49.094;11.900;2023-04-04T10:31:15;96937.81;;;5.07;45.65
11621;BME280;5866;49.094;11.900;2023-04-04T10:33:51;96940.03;;;5.47;44.16
11621;BME280;5866;49.094;11.900;2023-04-04T10:36:23;96932.63;;;5.52;43.75
11621;BME280;5866;49.094;11.900;2023-04-04T10:39:01;96931.13;;;4.90;45.41
11621;BME280;5866;49.094;11.900;2023-04-04T10:41:33;96932.09;;;4.76;45.06
11621;BME280;5866;49.094;11.900;2023-04-04T10:44:19;96932.97;;;5.24;44.93
11621;BME280;5866;49.094;11.900;2023-04-04T10:46:52;96932.53;;;4.70;45.08
11621;BME280;5866;49.094;11.900;2023-04-04T10:49:20;96930.09;;;4.44;45.83
11621;BME280;5866;49.094;11.900;2023-04-04T10:51:50;96921.25;;;5.17;45.18
11621;BME280;5866;49.094;11.900;2023-04-04T10:54:23;96928.66;;;5.47;44.46
11621;BME280;5866;49.094;11.900;2023-04-04T10:56:53;96930.88;;;5.99;43.31
11621;BME280;5866;49.094;11.900;2023-04-04T10:59:24;96925.41;;;5.43;44.59
11621;BME280;5866;49.094;11.900;2023-04-04T11:01:54;96932.13;;;5.47;44.03
11621;BME280;5866;49.094;11.900;2023-04-04T11:04:33;96926.78;;;5.84;43.59
11621;BME280;5866;49.094;11.900;2023-04-04T11:07:08;96918.69;;;8.23;41.14
11621;BME280;5866;49.094;11.900;2023-04-04T11:09:54;96893.16;;;9.22;38.44
11621;BME280;5866;49.094;11.900;2023-04-04T11:12:28;96902.66;;;9.91;37.96
11621;BME280;5866;49.094;11.900;2023-04-04T11:15:05;96892.91;;;10.48;36.15
11621;BME280;5866;49.094;11.900;2023-04-04T11:17:58;96897.03;;;10.32;35.79
11621;BME280;5866;49.094;11.900;2023-04-04T11:20:31;96886.13;;;10.35;35.25
11621;BME280;5866;49.094;11.900;2023-04-04T11:23:04;96881.84;;;12.04;34.79
11621;BME280;5866;49.094;11.900;2023-04-04T11:25:37;96882.44;;;10.46;34.46
11621;BME280;5866;49.094;11.900;2023-04-04T11:28:11;96896.22;;;8.28;38.17
11621;BME280;5866;49.094;11.900;2023-04-04T11:30:42;96878.66;;;6.81;40.67
11621;BME280;5866;49.094;11.900;2023-04-04T11:33:25;96895.09;;;5.61;44.57
11621;BME280;5866;49.094;11.900;2023-04-04T11:36:03;96890.03;;;5.93;45.73
11621;BME280;5866;49.094;11.900;2023-04-04T11:38:33;96887.06;;;5.98;43.20
11621;BME280;5866;49.094;11.900;2023-04-04T11:41:01;96899.66;;;5.71;43.17
11621;BME280;5866;49.094;11.900;2023-04-04T11:43:32;96884.19;;;6.56;41.55
11621;BME280;5866;49.094;11.900;2023-04-04T11:46:04;96880.84;;;6.76;42.10
11621;BME280;5866;49.094;11.900;2023-04-04T11:48:37;96880.09;;;7.90;40.62
11621;BME280;5866;49.094;11.900;2023-04-04T11:51:05;96877.78;;;6.81;42.80
11621;BME280;5866;49.094;11.900;2023-04-04T11:53:33;96877.72;;;7.14;42.74
11621;BME280;5866;49.094;11.900;2023-04-04T11:56:00;96870.78;;;7.65;40.43
11621;BME280;5866;49.094;11.900;2023-04-04T11:58:33;96876.72;;;6.83;40.78
11621;BME280;5866;49.094;11.900;2023-04-04T12:01:02;96869.81;;;7.14;41.10
11621;BME280;5866;49.094;11.900;2023-04-04T12:03:30;96863.56;;;8.69;39.01
11621;BME280;5866;49.094;11.900;2023-04-04T12:05:59;96866.59;;;8.04;40.14
11621;BME280;5866;49.094;11.900;2023-04-04T12:08:26;96875.53;;;8.73;39.55
11621;BME280;5866;49.094;11.900;2023-04-04T12:10:54;96862.78;;;9.45;36.90
11621;BME280;5866;49.094;11.900;2023-04-04T12:13:30;96863.75;;;9.06;36.37
11621;BME280;5866;49.094;11.900;2023-04-04T12:15:58;96856.28;;;11.33;33.90
11621;BME280;5866;49.094;11.900;2023-04-04T12:18:26;96856.03;;;11.26;34.21
11621;BME280;5866;49.094;11.900;2023-04-04T12:20:55;96846.84;;;11.91;33.71
11621;BME280;5866;49.094;11.900;2023-04-04T12:23:23;96843.72;;;11.95;34.31
11621;BME280;5866;49.094;11.900;2023-04-04T12:25:50;96840.56;;;12.51;33.31
11621;BME280;5866;49.094;11.900;2023-04-04T12:28:21;96839.41;;;12.54;34.14
11621;BME280;5866;49.094;11.900;2023-04-04T12:30:52;96853.25;;;10.83;34.69
11621;BME280;5866;49.094;11.900;2023-04-04T12:33:20;96858.44;;;8.37;38.24
11621;BME280;5866;49.094;11.900;2023-04-04T12:35:51;96854.78;;;7.26;39.79
11621;BME280;5866;49.094;11.900;2023-04-04T12:38:20;96852.63;;;7.51;40.95
11621;BME280;5866;49.094;11.900;2023-04-04T12:40:50;96856.09;;;6.99;41.74
11621;BME280;5866;49.094;11.900;2023-04-04T12:43:18;96851.91;;;5.99;43.22
11621;BME280;5866;49.094;11.900;2023-04-04T12:45:48;96851.84;;;6.65;42.66
11621;BME280;5866;49.094;11.900;2023-04-04T12:48:18;96849.25;;;6.32;42.61
11621;BME280;5866;49.094;11.900;2023-04-04T12:50:49;96864.53;;;5.37;43.14
11621;BME280;5866;49.094;11.900;2023-04-04T12:53:21;96860.00;;;5.85;43.13
11621;BME280;5866;49.094;11.900;2023-04-04T12:55:53;96853.81;;;6.95;41.03
11621;BME280;5866;49.094;11.900;2023-04-04T12:58:23;96849.31;;;8.00;39.50
11621;BME280;5866;49.094;11.900;2023-04-04T13:00:53;96844.69;;;8.53;39.05
11621;BME280;5866;49.094;11.900;2023-04-04T13:03:24;96842.28;;;8.99;38.71
11621;BME280;5866;49.094;11.900;2023-04-04T13:05:51;96837.84;;;10.32;36.26
11621;BME280;5866;49.094;11.900;2023-04-04T13:08:19;96831.59;;;11.75;33.09
11621;BME280;5866;49.094;11.900;2023-04-04T13:10:58;96832.59;;;13.01;31.33
11621;BME280;5866;49.094;11.900;2023-04-04T13:13:34;96828.59;;;12.55;32.19
11621;BME280;5866;49.094;11.900;2023-04-04T13:16:03;96837.56;;;9.70;34.97
11621;BME280;5866;49.094;11.900;2023-04-04T13:18:34;96838.94;;;8.97;36.29